sensor_id;sensor_type;location;lat;lon;timestamp;P1;durP1;ratioP1;P2;durP2;ratioP2
70150;SDS011;57517;43.562;19.540;2023-11-19T00:00:17;5.80;;;4.07;;
70150;SDS011;57517;43.562;19.540;2023-11-19T00:02:43;6.05;;;4.25;;
70150;SDS011;57517;43.562;19.540;2023-11-19T00:05:09;6.63;;;4.00;;
70150;SDS011;57517;43.562;19.540;2023-11-19T00:07:36;5.68;;;3.70;;
70150;SDS011;57517;43.562;19.540;2023-11-19T00:10:09;6.55;;;3.55;;
70150;SDS011;57517;43.562;19.540;2023-11-19T00:12:44;5.10;;;3.70;;
70150;SDS011;57517;43.562;19.540;2023-11-19T00:15:11;5.53;;;3.63;;
70150;SDS011;57517;43.562;19.540;2023-11-19T00:17:38;6.07;;;3.95;;
70150;SDS011;57517;43.562;19.540;2023-11-19T00:20:06;6.20;;;4.28;;
70150;SDS011;57517;43.562;19.540;2023-11-19T00:22:32;7.30;;;4.07;;
70150;SDS011;57517;43.562;19.540;2023-11-19T00:24:59;6.55;;;4.45;;
70150;SDS011;57517;43.562;19.540;2023-11-19T00:27:25;6.35;;;4.50;;
70150;SDS011;57517;43.562;19.540;2023-11-19T00:29:51;5.53;;;3.63;;
70150;SDS011;57517;43.562;19.540;2023-11-19T00:32:17;6.25;;;4.03;;
70150;SDS011;57517;43.562;19.540;2023-11-19T00:34:46;5.15;;;3.30;;
70150;SDS011;57517;43.562;19.540;2023-11-19T00:37:13;5.30;;;4.05;;
70150;SDS011;57517;43.562;19.540;2023-11-19T00:39:40;4.18;;;2.90;;
70150;SDS011;57517;43.562;19.540;2023-11-19T00:42:09;4.75;;;3.10;;
70150;SDS011;57517;43.562;19.540;2023-11-19T00:44:35;5.20;;;3.10;;
70150;SDS011;57517;43.562;19.540;2023-11-19T00:47:01;4.75;;;2.80;;
70150;SDS011;57517;43.562;19.540;2023-11-19T00:49:27;4.65;;;3.08;;
70150;SDS011;57517;43.562;19.540;2023-11-19T00:51:53;5.20;;;3.42;;
70150;SDS011;57517;43.562;19.540;2023-11-19T00:54:19;4.72;;;3.03;;
70150;SDS011;57517;43.562;19.540;2023-11-19T00:56:45;4.20;;;2.97;;
70150;SDS011;57517;43.562;19.540;2023-11-19T00:59:11;4.78;;;3.25;;
70150;SDS011;57517;43.562;19.540;2023-11-19T01:01:36;4.82;;;3.40;;
70150;SDS011;57517;43.562;19.540;2023-11-19T01:04:02;5.28;;;3.20;;
70150;SDS011;57517;43.562;19.540;2023-11-19T01:06:29;7.72;;;4.70;;
70150;SDS011;57517;43.562;19.540;2023-11-19T01:08:55;7.50;;;5.97;;
70150;SDS011;57517;43.562;19.540;2023-11-19T01:11:25;8.75;;;5.55;;
70150;SDS011;57517;43.562;19.540;2023-11-19T01:13:51;7.35;;;4.85;;
70150;SDS011;57517;43.562;19.540;2023-11-19T01:16:17;6.63;;;4.75;;
70150;SDS011;57517;43.562;19.540;2023-11-19T01:18:44;6.85;;;4.43;;
70150;SDS011;57517;43.562;19.540;2023-11-19T01:21:11;8.27;;;4.97;;
70150;SDS011;57517;43.562;19.540;2023-11-19T01:23:37;8.85;;;5.00;;
70150;SDS011;57517;43.562;19.540;2023-11-19T01:26:03;7.32;;;4.25;;
70150;SDS011;57517;43.562;19.540;2023-11-19T01:28:30;5.40;;;3.60;;
70150;SDS011;57517;43.562;19.540;2023-11-19T01:30:56;6.35;;;3.92;;
70150;SDS011;57517;43.562;19.540;2023-11-19T01:33:22;5.63;;;3.92;;
70150;SDS011;57517;43.562;19.540;2023-11-19T01:35:48;5.47;;;3.90;;
70150;SDS011;57517;43.562;19.540;2023-11-19T01:38:13;11.02;;;4.85;;
70150;SDS011;57517;43.562;19.540;2023-11-19T01:40:39;8.82;;;4.80;;
70150;SDS011;57517;43.562;19.540;2023-11-19T01:43:05;5.68;;;3.78;;
70150;SDS011;57517;43.562;19.540;2023-11-19T01:45:31;7.00;;;3.95;;
70150;SDS011;57517;43.562;19.540;2023-11-19T01:47:59;5.05;;;4.00;;
70150;SDS011;57517;43.562;19.540;2023-11-19T01:50:30;6.32;;;4.07;;
70150;SDS011;57517;43.562;19.540;2023-11-19T01:52:58;8.98;;;5.70;;
70150;SDS011;57517;43.562;19.540;2023-11-19T01:55:24;12.23;;;8.20;;
70150;SDS011;57517;43.562;19.540;2023-11-19T01:57:53;9.70;;;6.90;;
70150;SDS011;57517;43.562;19.540;2023-11-19T02:00:21;8.95;;;6.40;;
70150;SDS011;57517;43.562;19.540;2023-11-19T02:02:47;11.63;;;7.03;;
70150;SDS011;57517;43.562;19.540;2023-11-19T02:05:13;6.65;;;4.82;;
70150;SDS011;57517;43.562;19.540;2023-11-19T02:07:39;8.05;;;4.88;;
70150;SDS011;57517;43.562;19.540;2023-11-19T02:10:06;5.22;;;3.80;;
70150;SDS011;57517;43.562;19.540;2023-11-19T02:12:38;4.75;;;3.13;;
70150;SDS011;57517;43.562;19.540;2023-11-19T02:15:08;6.80;;;4.70;;
70150;SDS011;57517;43.562;19.540;2023-11-19T02:17:34;9.82;;;4.07;;
70150;SDS011;57517;43.562;19.540;2023-11-19T02:20:02;6.70;;;3.40;;
70150;SDS011;57517;43.562;19.540;2023-11-19T02:22:31;5.50;;;3.55;;
70150;SDS011;57517;43.562;19.540;2023-11-19T02:25:00;4.38;;;2.75;;
70150;SDS011;57517;43.562;19.540;2023-11-19T02:30:33;6.25;;;3.28;;
70150;SDS011;57517;43.562;19.540;2023-11-19T02:32:59;4.30;;;2.92;;
70150;SDS011;57517;43.562;19.540;2023-11-19T02:35:28;5.97;;;3.20;;
70150;SDS011;57517;43.562;19.540;2023-11-19T02:37:57;4.53;;;3.00;;
70150;SDS011;57517;43.562;19.540;2023-11-19T02:40:24;7.65;;;3.58;;
70150;SDS011;57517;43.562;19.540;2023-11-19T02:42:50;4.30;;;2.70;;
70150;SDS011;57517;43.562;19.540;2023-11-19T02:45:17;4.80;;;3.00;;
70150;SDS011;57517;43.562;19.540;2023-11-19T02:47:43;5.72;;;3.10;;
70150;SDS011;57517;43.562;19.540;2023-11-19T02:50:12;4.82;;;3.10;;
70150;SDS011;57517;43.562;19.540;2023-11-19T02:52:41;7.32;;;4.30;;
70150;SDS011;57517;43.562;19.540;2023-11-19T02:55:08;6.18;;;4.28;;
70150;SDS011;57517;43.562;19.540;2023-11-19T02:57:37;5.15;;;3.50;;
70150;SDS011;57517;43.562;19.540;2023-11-19T03:00:11;4.68;;;2.90;;
70150;SDS011;57517;43.562;19.540;2023-11-19T03:02:50;4.53;;;3.30;;
70150;SDS011;57517;43.562;19.540;2023-11-19T03:05:24;5.85;;;4.07;;
70150;SDS011;57517;43.562;19.540;2023-11-19T03:07:54;8.02;;;4.20;;
70150;SDS011;57517;43.562;19.540;2023-11-19T03:10:20;6.05;;;3.85;;
70150;SDS011;57517;43.562;19.540;2023-11-19T03:12:46;5.28;;;3.80;;
70150;SDS011;57517;43.562;19.540;2023-11-19T03:15:11;5.95;;;3.65;;
70150;SDS011;57517;43.562;19.540;2023-11-19T03:17:41;4.60;;;2.67;;
70150;SDS011;57517;43.562;19.540;2023-11-19T03:20:08;6.80;;;3.45;;
70150;SDS011;57517;43.562;19.540;2023-11-19T03:22:38;5.03;;;2.90;;
70150;SDS011;57517;43.562;19.540;2023-11-19T03:25:06;5.55;;;3.83;;
70150;SDS011;57517;43.562;19.540;2023-11-19T03:27:42;8.07;;;5.85;;
70150;SDS011;57517;43.562;19.540;2023-11-19T03:30:08;12.23;;;8.00;;
70150;SDS011;57517;43.562;19.540;2023-11-19T03:32:35;15.55;;;9.13;;
70150;SDS011;57517;43.562;19.540;2023-11-19T03:35:03;14.55;;;9.80;;
70150;SDS011;57517;43.562;19.540;2023-11-19T03:37:32;11.23;;;7.60;;
70150;SDS011;57517;43.562;19.540;2023-11-19T03:39:58;8.73;;;5.75;;
70150;SDS011;57517;43.562;19.540;2023-11-19T03:42:28;7.03;;;4.30;;
70150;SDS011;57517;43.562;19.540;2023-11-19T03:44:57;5.53;;;3.33;;
70150;SDS011;57517;43.562;19.540;2023-11-19T03:47:23;3.78;;;2.50;;
70150;SDS011;57517;43.562;19.540;2023-11-19T03:49:49;5.32;;;2.63;;
70150;SDS011;57517;43.562;19.540;2023-11-19T03:52:16;5.07;;;3.05;;
70150;SDS011;57517;43.562;19.540;2023-11-19T03:54:42;5.05;;;2.90;;
70150;SDS011;57517;43.562;19.540;2023-11-19T03:57:09;5.70;;;3.33;;
70150;SDS011;57517;43.562;19.540;2023-11-19T03:59:37;6.47;;;3.90;;
70150;SDS011;57517;43.562;19.540;2023-11-19T04:02:03;6.00;;;3.80;;
70150;SDS011;57517;43.562;19.540;2023-11-19T04:04:29;9.18;;;6.07;;
70150;SDS011;57517;43.562;19.540;2023-11-19T04:06:55;7.15;;;5.20;;
70150;SDS011;57517;43.562;19.540;2023-11-19T04:09:21;8.02;;;5.68;;
70150;SDS011;57517;43.562;19.540;2023-11-19T04:11:47;6.38;;;4.15;;
70150;SDS011;57517;43.562;19.540;2023-11-19T04:14:13;5.97;;;4.80;;
70150;SDS011;57517;43.562;19.540;2023-11-19T04:16:40;7.47;;;4.85;;
70150;SDS011;57517;43.562;19.540;2023-11-19T04:19:06;10.13;;;6.97;;
70150;SDS011;57517;43.562;19.540;2023-11-19T04:21:32;9.18;;;6.72;;
70150;SDS011;57517;43.562;19.540;2023-11-19T04:23:58;8.90;;;6.28;;
70150;SDS011;57517;43.562;19.540;2023-11-19T04:26:24;10.88;;;7.03;;
70150;SDS011;57517;43.562;19.540;2023-11-19T04:28:50;8.90;;;6.28;;
70150;SDS011;57517;43.562;19.540;2023-11-19T04:31:16;9.65;;;6.15;;
70150;SDS011;57517;43.562;19.540;2023-11-19T04:33:42;9.43;;;6.32;;
70150;SDS011;57517;43.562;19.540;2023-11-19T04:36:08;7.90;;;5.68;;
70150;SDS011;57517;43.562;19.540;2023-11-19T04:38:35;7.85;;;5.35;;
70150;SDS011;57517;43.562;19.540;2023-11-19T04:41:03;8.40;;;6.38;;
70150;SDS011;57517;43.562;19.540;2023-11-19T04:43:31;7.65;;;5.10;;
70150;SDS011;57517;43.562;19.540;2023-11-19T04:45:57;7.28;;;4.57;;
70150;SDS011;57517;43.562;19.540;2023-11-19T04:48:23;12.80;;;9.98;;
70150;SDS011;57517;43.562;19.540;2023-11-19T04:50:49;13.13;;;8.25;;
70150;SDS011;57517;43.562;19.540;2023-11-19T04:53:18;8.15;;;6.07;;
70150;SDS011;57517;43.562;19.540;2023-11-19T04:55:43;8.55;;;6.20;;
70150;SDS011;57517;43.562;19.540;2023-11-19T04:58:09;10.25;;;8.20;;
70150;SDS011;57517;43.562;19.540;2023-11-19T05:00:35;12.50;;;8.38;;
70150;SDS011;57517;43.562;19.540;2023-11-19T05:03:01;10.60;;;7.65;;
70150;SDS011;57517;43.562;19.540;2023-11-19T05:05:27;10.57;;;6.95;;
70150;SDS011;57517;43.562;19.540;2023-11-19T05:07:53;11.10;;;7.78;;
70150;SDS011;57517;43.562;19.540;2023-11-19T05:10:20;12.48;;;9.27;;
70150;SDS011;57517;43.562;19.540;2023-11-19T05:12:46;10.80;;;8.30;;
70150;SDS011;57517;43.562;19.540;2023-11-19T05:15:11;12.80;;;10.15;;
70150;SDS011;57517;43.562;19.540;2023-11-19T05:17:37;14.68;;;9.45;;
70150;SDS011;57517;43.562;19.540;2023-11-19T05:20:04;11.60;;;9.82;;
70150;SDS011;57517;43.562;19.540;2023-11-19T05:22:38;13.68;;;8.80;;
70150;SDS011;57517;43.562;19.540;2023-11-19T05:25:07;13.85;;;8.95;;
70150;SDS011;57517;43.562;19.540;2023-11-19T05:27:34;13.93;;;9.35;;
70150;SDS011;57517;43.562;19.540;2023-11-19T05:30:01;11.80;;;7.50;;
70150;SDS011;57517;43.562;19.540;2023-11-19T05:32:28;14.30;;;9.15;;
70150;SDS011;57517;43.562;19.540;2023-11-19T05:34:53;12.13;;;8.13;;
70150;SDS011;57517;43.562;19.540;2023-11-19T05:37:19;12.35;;;8.85;;
70150;SDS011;57517;43.562;19.540;2023-11-19T05:39:45;14.07;;;9.80;;
70150;SDS011;57517;43.562;19.540;2023-11-19T05:42:11;13.43;;;9.23;;
70150;SDS011;57517;43.562;19.540;2023-11-19T05:44:36;12.45;;;8.93;;
70150;SDS011;57517;43.562;19.540;2023-11-19T05:47:03;12.70;;;8.93;;
70150;SDS011;57517;43.562;19.540;2023-11-19T05:49:29;10.18;;;7.95;;
70150;SDS011;57517;43.562;19.540;2023-11-19T05:51:55;13.18;;;8.90;;
70150;SDS011;57517;43.562;19.540;2023-11-19T05:54:21;13.07;;;8.15;;
70150;SDS011;57517;43.562;19.540;2023-11-19T05:56:47;10.80;;;7.03;;
70150;SDS011;57517;43.562;19.540;2023-11-19T05:59:14;13.52;;;7.78;;
70150;SDS011;57517;43.562;19.540;2023-11-19T06:01:43;9.88;;;7.43;;
70150;SDS011;57517;43.562;19.540;2023-11-19T06:04:09;13.90;;;9.10;;
70150;SDS011;57517;43.562;19.540;2023-11-19T06:06:35;17.42;;;12.30;;
70150;SDS011;57517;43.562;19.540;2023-11-19T06:09:01;25.23;;;17.88;;
70150;SDS011;57517;43.562;19.540;2023-11-19T06:11:28;26.02;;;19.95;;
70150;SDS011;57517;43.562;19.540;2023-11-19T06:13:54;21.45;;;16.85;;
70150;SDS011;57517;43.562;19.540;2023-11-19T06:16:19;20.52;;;12.88;;
70150;SDS011;57517;43.562;19.540;2023-11-19T06:18:45;19.08;;;12.43;;
70150;SDS011;57517;43.562;19.540;2023-11-19T06:21:11;16.98;;;11.80;;
70150;SDS011;57517;43.562;19.540;2023-11-19T06:23:37;17.88;;;12.18;;
70150;SDS011;57517;43.562;19.540;2023-11-19T06:26:03;15.90;;;11.77;;
70150;SDS011;57517;43.562;19.540;2023-11-19T06:28:30;14.75;;;10.80;;
70150;SDS011;57517;43.562;19.540;2023-11-19T06:30:56;13.70;;;9.10;;
70150;SDS011;57517;43.562;19.540;2023-11-19T06:33:23;13.20;;;8.95;;
70150;SDS011;57517;43.562;19.540;2023-11-19T06:35:49;13.70;;;10.38;;
70150;SDS011;57517;43.562;19.540;2023-11-19T06:38:15;18.27;;;14.77;;
70150;SDS011;57517;43.562;19.540;2023-11-19T06:40:41;33.45;;;25.95;;
70150;SDS011;57517;43.562;19.540;2023-11-19T06:43:07;51.00;;;41.50;;
70150;SDS011;57517;43.562;19.540;2023-11-19T06:45:35;53.65;;;43.65;;
70150;SDS011;57517;43.562;19.540;2023-11-19T06:48:04;56.75;;;42.88;;
70150;SDS011;57517;43.562;19.540;2023-11-19T06:50:31;48.95;;;39.83;;
70150;SDS011;57517;43.562;19.540;2023-11-19T06:52:57;44.40;;;35.17;;
70150;SDS011;57517;43.562;19.540;2023-11-19T06:55:23;39.28;;;33.78;;
70150;SDS011;57517;43.562;19.540;2023-11-19T06:57:49;36.35;;;32.20;;
70150;SDS011;57517;43.562;19.540;2023-11-19T07:00:14;32.30;;;26.27;;
70150;SDS011;57517;43.562;19.540;2023-11-19T07:02:40;19.42;;;15.60;;
70150;SDS011;57517;43.562;19.540;2023-11-19T07:05:06;15.40;;;11.10;;
70150;SDS011;57517;43.562;19.540;2023-11-19T07:07:33;17.85;;;13.15;;
70150;SDS011;57517;43.562;19.540;2023-11-19T07:10:00;46.45;;;32.63;;
70150;SDS011;57517;43.562;19.540;2023-11-19T07:12:27;58.63;;;39.60;;
70150;SDS011;57517;43.562;19.540;2023-11-19T07:14:53;21.92;;;14.55;;
70150;SDS011;57517;43.562;19.540;2023-11-19T07:17:20;19.85;;;15.07;;
70150;SDS011;57517;43.562;19.540;2023-11-19T07:19:46;17.40;;;14.27;;
70150;SDS011;57517;43.562;19.540;2023-11-19T07:22:14;13.68;;;11.90;;
70150;SDS011;57517;43.562;19.540;2023-11-19T07:24:40;23.60;;;15.85;;
70150;SDS011;57517;43.562;19.540;2023-11-19T07:27:06;20.77;;;14.88;;
70150;SDS011;57517;43.562;19.540;2023-11-19T07:29:34;18.63;;;13.88;;
70150;SDS011;57517;43.562;19.540;2023-11-19T07:32:02;30.25;;;21.92;;
70150;SDS011;57517;43.562;19.540;2023-11-19T07:34:30;21.20;;;15.93;;
70150;SDS011;57517;43.562;19.540;2023-11-19T07:36:56;15.65;;;12.95;;
70150;SDS011;57517;43.562;19.540;2023-11-19T07:39:27;24.20;;;20.02;;
70150;SDS011;57517;43.562;19.540;2023-11-19T07:41:56;22.33;;;17.75;;
70150;SDS011;57517;43.562;19.540;2023-11-19T07:44:21;70.05;;;48.85;;
70150;SDS011;57517;43.562;19.540;2023-11-19T07:46:47;68.10;;;43.88;;
70150;SDS011;57517;43.562;19.540;2023-11-19T07:49:13;47.45;;;33.58;;
70150;SDS011;57517;43.562;19.540;2023-11-19T07:51:39;49.78;;;35.22;;
70150;SDS011;57517;43.562;19.540;2023-11-19T07:54:05;32.00;;;23.02;;
70150;SDS011;57517;43.562;19.540;2023-11-19T07:56:32;15.48;;;13.68;;
70150;SDS011;57517;43.562;19.540;2023-11-19T07:59:02;13.82;;;10.15;;
70150;SDS011;57517;43.562;19.540;2023-11-19T08:01:28;22.65;;;18.67;;
70150;SDS011;57517;43.562;19.540;2023-11-19T08:03:54;18.52;;;15.82;;
70150;SDS011;57517;43.562;19.540;2023-11-19T08:06:20;27.50;;;18.58;;
70150;SDS011;57517;43.562;19.540;2023-11-19T08:08:46;19.55;;;15.27;;
70150;SDS011;57517;43.562;19.540;2023-11-19T08:11:13;12.75;;;11.43;;
70150;SDS011;57517;43.562;19.540;2023-11-19T08:13:39;25.33;;;18.95;;
70150;SDS011;57517;43.562;19.540;2023-11-19T08:16:04;11.70;;;10.32;;
70150;SDS011;57517;43.562;19.540;2023-11-19T08:18:34;22.17;;;17.80;;
70150;SDS011;57517;43.562;19.540;2023-11-19T08:21:00;18.42;;;16.23;;
70150;SDS011;57517;43.562;19.540;2023-11-19T08:23:26;12.43;;;10.55;;
70150;SDS011;57517;43.562;19.540;2023-11-19T08:25:53;16.95;;;13.73;;
70150;SDS011;57517;43.562;19.540;2023-11-19T08:28:19;9.63;;;8.52;;
70150;SDS011;57517;43.562;19.540;2023-11-19T08:30:45;6.97;;;6.28;;
70150;SDS011;57517;43.562;19.540;2023-11-19T08:33:11;9.65;;;8.75;;
70150;SDS011;57517;43.562;19.540;2023-11-19T08:35:37;8.60;;;7.13;;
70150;SDS011;57517;43.562;19.540;2023-11-19T08:38:02;11.45;;;10.25;;
70150;SDS011;57517;43.562;19.540;2023-11-19T08:40:28;7.97;;;7.18;;
70150;SDS011;57517;43.562;19.540;2023-11-19T08:42:55;11.95;;;9.55;;
70150;SDS011;57517;43.562;19.540;2023-11-19T08:45:21;17.10;;;13.23;;
70150;SDS011;57517;43.562;19.540;2023-11-19T08:47:47;27.95;;;18.45;;
70150;SDS011;57517;43.562;19.540;2023-11-19T08:50:13;15.32;;;10.00;;
70150;SDS011;57517;43.562;19.540;2023-11-19T08:52:38;6.20;;;4.35;;
70150;SDS011;57517;43.562;19.540;2023-11-19T08:55:04;3.60;;;3.22;;
70150;SDS011;57517;43.562;19.540;2023-11-19T08:57:30;4.90;;;4.00;;
70150;SDS011;57517;43.562;19.540;2023-11-19T08:59:57;4.75;;;3.45;;
70150;SDS011;57517;43.562;19.540;2023-11-19T09:02:24;4.53;;;3.70;;
70150;SDS011;57517;43.562;19.540;2023-11-19T09:04:51;6.03;;;4.95;;
70150;SDS011;57517;43.562;19.540;2023-11-19T09:07:16;9.07;;;7.18;;
70150;SDS011;57517;43.562;19.540;2023-11-19T09:09:42;5.47;;;4.53;;
70150;SDS011;57517;43.562;19.540;2023-11-19T09:12:08;5.10;;;4.07;;
70150;SDS011;57517;43.562;19.540;2023-11-19T09:14:34;4.65;;;4.15;;
70150;SDS011;57517;43.562;19.540;2023-11-19T09:16:59;5.10;;;4.20;;
70150;SDS011;57517;43.562;19.540;2023-11-19T09:19:26;5.05;;;3.97;;
70150;SDS011;57517;43.562;19.540;2023-11-19T09:21:52;5.72;;;3.85;;
70150;SDS011;57517;43.562;19.540;2023-11-19T09:24:18;4.55;;;3.10;;
70150;SDS011;57517;43.562;19.540;2023-11-19T09:26:44;3.65;;;2.92;;
70150;SDS011;57517;43.562;19.540;2023-11-19T09:29:10;3.95;;;3.10;;
70150;SDS011;57517;43.562;19.540;2023-11-19T09:31:37;4.32;;;3.42;;
70150;SDS011;57517;43.562;19.540;2023-11-19T09:34:03;4.55;;;3.10;;
70150;SDS011;57517;43.562;19.540;2023-11-19T09:36:30;4.28;;;3.10;;
70150;SDS011;57517;43.562;19.540;2023-11-19T09:38:56;5.25;;;3.95;;
70150;SDS011;57517;43.562;19.540;2023-11-19T09:41:23;5.63;;;5.13;;
70150;SDS011;57517;43.562;19.540;2023-11-19T09:43:49;12.20;;;10.98;;
70150;SDS011;57517;43.562;19.540;2023-11-19T09:46:16;11.93;;;10.82;;
70150;SDS011;57517;43.562;19.540;2023-11-19T09:48:42;7.05;;;6.35;;
70150;SDS011;57517;43.562;19.540;2023-11-19T09:51:09;4.80;;;3.92;;
70150;SDS011;57517;43.562;19.540;2023-11-19T09:53:36;6.05;;;3.20;;
70150;SDS011;57517;43.562;19.540;2023-11-19T09:56:03;3.40;;;2.50;;
70150;SDS011;57517;43.562;19.540;2023-11-19T09:58:30;3.50;;;2.38;;
70150;SDS011;57517;43.562;19.540;2023-11-19T10:00:59;3.13;;;2.30;;
70150;SDS011;57517;43.562;19.540;2023-11-19T10:03:29;4.50;;;3.70;;
70150;SDS011;57517;43.562;19.540;2023-11-19T10:06:00;3.65;;;2.65;;
70150;SDS011;57517;43.562;19.540;2023-11-19T10:08:26;3.78;;;2.88;;
70150;SDS011;57517;43.562;19.540;2023-11-19T10:10:52;8.15;;;7.43;;
70150;SDS011;57517;43.562;19.540;2023-11-19T10:13:18;5.65;;;5.05;;
70150;SDS011;57517;43.562;19.540;2023-11-19T10:15:44;5.35;;;4.65;;
70150;SDS011;57517;43.562;19.540;2023-11-19T10:18:10;3.60;;;2.88;;
70150;SDS011;57517;43.562;19.540;2023-11-19T10:20:36;3.95;;;2.85;;
70150;SDS011;57517;43.562;19.540;2023-11-19T10:23:02;4.13;;;3.10;;
70150;SDS011;57517;43.562;19.540;2023-11-19T10:25:29;4.38;;;3.10;;
70150;SDS011;57517;43.562;19.540;2023-11-19T10:27:55;5.20;;;3.80;;
70150;SDS011;57517;43.562;19.540;2023-11-19T10:30:23;4.50;;;3.35;;
70150;SDS011;57517;43.562;19.540;2023-11-19T10:33:09;5.43;;;4.50;;
70150;SDS011;57517;43.562;19.540;2023-11-19T10:35:55;6.07;;;4.50;;
70150;SDS011;57517;43.562;19.540;2023-11-19T10:38:22;8.45;;;6.03;;
70150;SDS011;57517;43.562;19.540;2023-11-19T10:40:49;6.88;;;5.20;;
70150;SDS011;57517;43.562;19.540;2023-11-19T10:43:16;7.10;;;5.53;;
70150;SDS011;57517;43.562;19.540;2023-11-19T10:45:42;7.50;;;6.43;;
70150;SDS011;57517;43.562;19.540;2023-11-19T10:48:08;7.18;;;5.20;;
70150;SDS011;57517;43.562;19.540;2023-11-19T10:50:35;5.38;;;3.92;;
70150;SDS011;57517;43.562;19.540;2023-11-19T10:53:03;4.60;;;3.50;;
70150;SDS011;57517;43.562;19.540;2023-11-19T10:55:33;6.43;;;5.22;;
70150;SDS011;57517;43.562;19.540;2023-11-19T10:58:04;6.78;;;5.50;;
70150;SDS011;57517;43.562;19.540;2023-11-19T11:03:20;4.38;;;3.58;;
70150;SDS011;57517;43.562;19.540;2023-11-19T11:05:50;5.97;;;4.00;;
70150;SDS011;57517;43.562;19.540;2023-11-19T11:08:17;4.93;;;3.60;;
70150;SDS011;57517;43.562;19.540;2023-11-19T11:10:45;4.80;;;3.85;;
70150;SDS011;57517;43.562;19.540;2023-11-19T11:13:24;4.65;;;3.55;;
70150;SDS011;57517;43.562;19.540;2023-11-19T11:15:52;4.55;;;3.58;;
70150;SDS011;57517;43.562;19.540;2023-11-19T11:18:22;4.72;;;3.78;;
70150;SDS011;57517;43.562;19.540;2023-11-19T11:20:49;6.00;;;5.38;;
70150;SDS011;57517;43.562;19.540;2023-11-19T11:29:01;4.93;;;3.58;;
70150;SDS011;57517;43.562;19.540;2023-11-19T11:31:45;6.53;;;4.30;;
70150;SDS011;57517;43.562;19.540;2023-11-19T11:37:50;6.15;;;3.97;;
70150;SDS011;57517;43.562;19.540;2023-11-19T11:40:24;5.60;;;4.40;;
70150;SDS011;57517;43.562;19.540;2023-11-19T11:42:51;8.73;;;6.10;;
70150;SDS011;57517;43.562;19.540;2023-11-19T11:45:18;6.07;;;4.63;;
70150;SDS011;57517;43.562;19.540;2023-11-19T11:50:20;12.90;;;10.10;;
70150;SDS011;57517;43.562;19.540;2023-11-19T11:55:36;5.65;;;4.22;;
70150;SDS011;57517;43.562;19.540;2023-11-19T11:58:21;4.05;;;3.00;;
70150;SDS011;57517;43.562;19.540;2023-11-19T12:00:50;6.55;;;3.85;;
70150;SDS011;57517;43.562;19.540;2023-11-19T12:03:19;6.13;;;3.47;;
70150;SDS011;57517;43.562;19.540;2023-11-19T12:05:49;5.00;;;3.95;;
70150;SDS011;57517;43.562;19.540;2023-11-19T12:08:16;6.55;;;4.97;;
70150;SDS011;57517;43.562;19.540;2023-11-19T12:10:46;7.72;;;4.93;;
70150;SDS011;57517;43.562;19.540;2023-11-19T12:13:13;6.55;;;4.25;;
70150;SDS011;57517;43.562;19.540;2023-11-19T12:16:13;7.70;;;5.35;;
70150;SDS011;57517;43.562;19.540;2023-11-19T12:18:32;9.80;;;6.55;;
70150;SDS011;57517;43.562;19.540;2023-11-19T12:20:59;6.80;;;5.15;;
70150;SDS011;57517;43.562;19.540;2023-11-19T12:23:26;7.63;;;5.35;;
70150;SDS011;57517;43.562;19.540;2023-11-19T12:25:54;10.38;;;7.10;;
70150;SDS011;57517;43.562;19.540;2023-11-19T12:28:20;9.43;;;7.22;;
70150;SDS011;57517;43.562;19.540;2023-11-19T12:30:46;13.25;;;9.15;;
70150;SDS011;57517;43.562;19.540;2023-11-19T12:33:13;7.75;;;6.30;;
70150;SDS011;57517;43.562;19.540;2023-11-19T12:38:05;5.03;;;3.40;;
70150;SDS011;57517;43.562;19.540;2023-11-19T12:40:31;4.70;;;3.25;;
70150;SDS011;57517;43.562;19.540;2023-11-19T12:42:57;5.55;;;3.65;;
70150;SDS011;57517;43.562;19.540;2023-11-19T12:45:24;7.57;;;3.70;;
70150;SDS011;57517;43.562;19.540;2023-11-19T12:48:06;6.32;;;4.43;;
70150;SDS011;57517;43.562;19.540;2023-11-19T12:53:20;6.38;;;4.20;;
70150;SDS011;57517;43.562;19.540;2023-11-19T12:55:46;6.15;;;4.57;;
70150;SDS011;57517;43.562;19.540;2023-11-19T13:01:17;6.55;;;4.78;;
70150;SDS011;57517;43.562;19.540;2023-11-19T13:03:44;11.43;;;7.57;;
70150;SDS011;57517;43.562;19.540;2023-11-19T13:06:11;13.75;;;7.80;;
70150;SDS011;57517;43.562;19.540;2023-11-19T13:08:44;15.27;;;10.98;;
70150;SDS011;57517;43.562;19.540;2023-11-19T13:11:11;17.88;;;13.95;;
70150;SDS011;57517;43.562;19.540;2023-11-19T13:13:53;37.10;;;26.73;;
70150;SDS011;57517;43.562;19.540;2023-11-19T13:16:23;49.95;;;35.35;;
70150;SDS011;57517;43.562;19.540;2023-11-19T13:18:49;38.72;;;31.92;;
70150;SDS011;57517;43.562;19.540;2023-11-19T13:21:16;60.22;;;42.03;;
70150;SDS011;57517;43.562;19.540;2023-11-19T13:23:42;61.75;;;41.78;;
70150;SDS011;57517;43.562;19.540;2023-11-19T13:26:09;102.15;;;68.78;;
70150;SDS011;57517;43.562;19.540;2023-11-19T13:28:35;60.33;;;43.00;;
70150;SDS011;57517;43.562;19.540;2023-11-19T13:31:02;45.50;;;36.65;;
70150;SDS011;57517;43.562;19.540;2023-11-19T13:33:28;56.00;;;42.65;;
70150;SDS011;57517;43.562;19.540;2023-11-19T13:35:54;85.85;;;61.15;;
70150;SDS011;57517;43.562;19.540;2023-11-19T13:38:20;81.60;;;63.28;;
70150;SDS011;57517;43.562;19.540;2023-11-19T13:40:48;82.50;;;64.82;;
70150;SDS011;57517;43.562;19.540;2023-11-19T13:43:13;95.90;;;75.65;;
70150;SDS011;57517;43.562;19.540;2023-11-19T13:45:40;92.80;;;68.55;;
70150;SDS011;57517;43.562;19.540;2023-11-19T13:48:05;94.35;;;64.57;;
70150;SDS011;57517;43.562;19.540;2023-11-19T13:50:31;86.03;;;63.92;;
70150;SDS011;57517;43.562;19.540;2023-11-19T13:52:59;67.22;;;53.42;;
70150;SDS011;57517;43.562;19.540;2023-11-19T13:55:25;67.45;;;54.88;;
70150;SDS011;57517;43.562;19.540;2023-11-19T13:57:51;66.32;;;53.78;;
70150;SDS011;57517;43.562;19.540;2023-11-19T14:00:17;83.43;;;66.28;;
70150;SDS011;57517;43.562;19.540;2023-11-19T14:02:44;85.93;;;68.35;;
70150;SDS011;57517;43.562;19.540;2023-11-19T14:05:11;93.72;;;78.13;;
70150;SDS011;57517;43.562;19.540;2023-11-19T14:07:38;94.50;;;76.70;;
70150;SDS011;57517;43.562;19.540;2023-11-19T14:10:05;79.15;;;65.53;;
70150;SDS011;57517;43.562;19.540;2023-11-19T14:12:35;81.55;;;61.00;;
70150;SDS011;57517;43.562;19.540;2023-11-19T14:15:04;65.93;;;52.35;;
70150;SDS011;57517;43.562;19.540;2023-11-19T14:17:31;58.85;;;46.50;;
70150;SDS011;57517;43.562;19.540;2023-11-19T14:19:57;51.55;;;42.65;;
70150;SDS011;57517;43.562;19.540;2023-11-19T14:22:23;54.85;;;44.92;;
70150;SDS011;57517;43.562;19.540;2023-11-19T14:24:50;58.13;;;47.53;;
70150;SDS011;57517;43.562;19.540;2023-11-19T14:27:16;59.25;;;46.00;;
70150;SDS011;57517;43.562;19.540;2023-11-19T14:29:44;63.05;;;47.88;;
70150;SDS011;57517;43.562;19.540;2023-11-19T14:32:10;64.88;;;51.03;;
70150;SDS011;57517;43.562;19.540;2023-11-19T14:34:36;55.40;;;46.17;;
70150;SDS011;57517;43.562;19.540;2023-11-19T14:37:03;49.45;;;40.67;;
70150;SDS011;57517;43.562;19.540;2023-11-19T14:39:29;45.38;;;38.65;;
70150;SDS011;57517;43.562;19.540;2023-11-19T14:41:58;61.67;;;46.53;;
70150;SDS011;57517;43.562;19.540;2023-11-19T14:44:26;56.78;;;45.75;;
70150;SDS011;57517;43.562;19.540;2023-11-19T14:46:52;61.15;;;49.30;;
70150;SDS011;57517;43.562;19.540;2023-11-19T14:49:18;59.75;;;46.70;;
70150;SDS011;57517;43.562;19.540;2023-11-19T14:51:44;75.20;;;59.55;;
70150;SDS011;57517;43.562;19.540;2023-11-19T14:54:09;76.88;;;59.63;;